<?xml version="1.0" encoding="UTF-8" standalone="no" ?>
<gpx xmlns="http://www.topografix.com/GPX/1/1" creator="MapSource 6.11.6" version="1.1" xmlns:xsi="http://www.w3.org/2001/XMLSchema-instance" xsi:schemaLocation="http://www.topografix.com/GPX/1/1 http://www.topografix.com/GPX/1/1/gpx.xsd">

  <metadata>
    <link href="http://www.garmin.com">
      <text>Garmin International</text>
    </link>
    <time>2009-11-01T16:30:33Z</time>
    <bounds maxlat="50.681479" maxlon="6.424204" minlat="50.664026" minlon="6.404806"/>
  </metadata>

  <trk>
    <name>Froitscheidt-Harscheidt RW</name>
    <extensions>
      <gpxx:TrackExtension xmlns:gpxx="http://www.garmin.com/xmlschemas/GpxExtensions/v3" xmlns:xsi="http://www.w3.org/2001/XMLSchema-instance" xsi:schemaLocation="http://www.garmin.com/xmlschemas/GpxExtensions/v3 http://www.garmin.com/xmlschemas/GpxExtensions/v3/GpxExtensionsv3.xsd">
        <gpxx:DisplayColor>White</gpxx:DisplayColor>
      </gpxx:TrackExtension>
    </extensions>
    <trkseg>
      <trkpt lat="50.664060" lon="6.408741">
        <ele>433.210000</ele>
        <time>2009-11-01T08:53:28Z</time>
      </trkpt>
      <trkpt lat="50.664175" lon="6.408672">
        <ele>433.210000</ele>
        <time>2009-11-01T08:53:49Z</time>
      </trkpt>
      <trkpt lat="50.664143" lon="6.408697">
        <ele>432.250000</ele>
        <time>2009-11-01T08:54:05Z</time>
      </trkpt>
      <trkpt lat="50.664026" lon="6.409020">
        <ele>432.730000</ele>
        <time>2009-11-01T08:54:15Z</time>
      </trkpt>
      <trkpt lat="50.664034" lon="6.409001">
        <ele>432.730000</ele>
        <time>2009-11-01T08:54:26Z</time>
      </trkpt>
      <trkpt lat="50.664071" lon="6.408945">
        <ele>432.730000</ele>
        <time>2009-11-01T08:54:48Z</time>
      </trkpt>
      <trkpt lat="50.664094" lon="6.408838">
        <ele>432.250000</ele>
        <time>2009-11-01T08:55:07Z</time>
      </trkpt>
      <trkpt lat="50.664103" lon="6.408758">
        <ele>431.770000</ele>
        <time>2009-11-01T08:56:00Z</time>
      </trkpt>
      <trkpt lat="50.664661" lon="6.409270">
        <ele>431.770000</ele>
        <time>2009-11-01T09:02:08Z</time>
      </trkpt>
      <trkpt lat="50.664292" lon="6.408968">
        <ele>432.730000</ele>
        <time>2009-11-01T09:02:15Z</time>
      </trkpt>
      <trkpt lat="50.664197" lon="6.408818">
        <ele>433.210000</ele>
        <time>2009-11-01T09:02:21Z</time>
      </trkpt>
      <trkpt lat="50.664233" lon="6.408666">
        <ele>433.210000</ele>
        <time>2009-11-01T09:02:36Z</time>
      </trkpt>
      <trkpt lat="50.664251" lon="6.408643">
        <ele>433.210000</ele>
        <time>2009-11-01T09:02:45Z</time>
      </trkpt>
      <trkpt lat="50.664242" lon="6.408661">
        <ele>432.730000</ele>
        <time>2009-11-01T09:02:56Z</time>
      </trkpt>
      <trkpt lat="50.664239" lon="6.408710">
        <ele>433.210000</ele>
        <time>2009-11-01T09:03:08Z</time>
      </trkpt>
      <trkpt lat="50.664182" lon="6.408844">
        <ele>433.690000</ele>
        <time>2009-11-01T09:03:25Z</time>
      </trkpt>
      <trkpt lat="50.664178" lon="6.408900">
        <ele>432.730000</ele>
        <time>2009-11-01T09:03:44Z</time>
      </trkpt>
      <trkpt lat="50.664189" lon="6.408973">
        <ele>432.730000</ele>
        <time>2009-11-01T09:03:48Z</time>
      </trkpt>
      <trkpt lat="50.664323" lon="6.409025">
        <ele>430.810000</ele>
        <time>2009-11-01T09:04:00Z</time>
      </trkpt>
      <trkpt lat="50.664506" lon="6.409019">
        <ele>430.330000</ele>
        <time>2009-11-01T09:04:12Z</time>
      </trkpt>
      <trkpt lat="50.664558" lon="6.409008">
        <ele>429.370000</ele>
        <time>2009-11-01T09:04:16Z</time>
      </trkpt>
      <trkpt lat="50.664637" lon="6.409031">
        <ele>428.400000</ele>
        <time>2009-11-01T09:04:24Z</time>
      </trkpt>
      <trkpt lat="50.664747" lon="6.409019">
        <ele>427.440000</ele>
        <time>2009-11-01T09:04:36Z</time>
      </trkpt>
      <trkpt lat="50.664997" lon="6.409077">
        <ele>424.080000</ele>
        <time>2009-11-01T09:04:56Z</time>
      </trkpt>
      <trkpt lat="50.665223" lon="6.409150">
        <ele>421.680000</ele>
        <time>2009-11-01T09:05:12Z</time>
      </trkpt>
      <trkpt lat="50.665298" lon="6.409186">
        <ele>421.190000</ele>
        <time>2009-11-01T09:05:19Z</time>
      </trkpt>
      <trkpt lat="50.665401" lon="6.409213">
        <ele>420.230000</ele>
        <time>2009-11-01T09:05:27Z</time>
      </trkpt>
      <trkpt lat="50.665544" lon="6.409291">
        <ele>418.790000</ele>
        <time>2009-11-01T09:05:38Z</time>
      </trkpt>
      <trkpt lat="50.665712" lon="6.409294">
        <ele>417.350000</ele>
        <time>2009-11-01T09:05:50Z</time>
      </trkpt>
      <trkpt lat="50.665891" lon="6.409260">
        <ele>415.910000</ele>
        <time>2009-11-01T09:06:04Z</time>
      </trkpt>
      <trkpt lat="50.666052" lon="6.409307">
        <ele>414.470000</ele>
        <time>2009-11-01T09:06:16Z</time>
      </trkpt>
      <trkpt lat="50.666289" lon="6.409340">
        <ele>413.020000</ele>
        <time>2009-11-01T09:06:32Z</time>
      </trkpt>
      <trkpt lat="50.666449" lon="6.409417">
        <ele>412.060000</ele>
        <time>2009-11-01T09:06:43Z</time>
      </trkpt>
      <trkpt lat="50.666602" lon="6.409458">
        <ele>410.620000</ele>
        <time>2009-11-01T09:06:54Z</time>
      </trkpt>
      <trkpt lat="50.666744" lon="6.409536">
        <ele>409.660000</ele>
        <time>2009-11-01T09:07:06Z</time>
      </trkpt>
      <trkpt lat="50.666799" lon="6.409551">
        <ele>409.660000</ele>
        <time>2009-11-01T09:07:11Z</time>
      </trkpt>
      <trkpt lat="50.666982" lon="6.409492">
        <ele>409.660000</ele>
        <time>2009-11-01T09:07:25Z</time>
      </trkpt>
      <trkpt lat="50.667087" lon="6.409502">
        <ele>409.180000</ele>
        <time>2009-11-01T09:07:33Z</time>
      </trkpt>
      <trkpt lat="50.667270" lon="6.409462">
        <ele>407.740000</ele>
        <time>2009-11-01T09:07:45Z</time>
      </trkpt>
      <trkpt lat="50.667470" lon="6.409438">
        <ele>407.260000</ele>
        <time>2009-11-01T09:07:59Z</time>
      </trkpt>
      <trkpt lat="50.667640" lon="6.409350">
        <ele>406.290000</ele>
        <time>2009-11-01T09:08:12Z</time>
      </trkpt>
      <trkpt lat="50.667720" lon="6.409346">
        <ele>405.810000</ele>
        <time>2009-11-01T09:08:16Z</time>
      </trkpt>
      <trkpt lat="50.667900" lon="6.409347">
        <ele>404.370000</ele>
        <time>2009-11-01T09:08:28Z</time>
      </trkpt>
      <trkpt lat="50.667922" lon="6.409358">
        <ele>404.370000</ele>
        <time>2009-11-01T09:08:30Z</time>
      </trkpt>
      <trkpt lat="50.668079" lon="6.409402">
        <ele>403.890000</ele>
        <time>2009-11-01T09:08:43Z</time>
      </trkpt>
      <trkpt lat="50.668257" lon="6.409346">
        <ele>402.930000</ele>
        <time>2009-11-01T09:08:55Z</time>
      </trkpt>
      <trkpt lat="50.668463" lon="6.409309">
        <ele>402.930000</ele>
        <time>2009-11-01T09:09:08Z</time>
      </trkpt>
      <trkpt lat="50.668472" lon="6.409306">
        <ele>402.930000</ele>
        <time>2009-11-01T09:09:09Z</time>
      </trkpt>
      <trkpt lat="50.668598" lon="6.409025">
        <ele>401.490000</ele>
        <time>2009-11-01T09:09:26Z</time>
      </trkpt>
      <trkpt lat="50.668630" lon="6.408906">
        <ele>400.530000</ele>
        <time>2009-11-01T09:09:32Z</time>
      </trkpt>
      <trkpt lat="50.668689" lon="6.408725">
        <ele>401.490000</ele>
        <time>2009-11-01T09:09:45Z</time>
      </trkpt>
      <trkpt lat="50.668903" lon="6.408825">
        <ele>403.890000</ele>
        <time>2009-11-01T09:10:05Z</time>
      </trkpt>
      <trkpt lat="50.668934" lon="6.408829">
        <ele>403.890000</ele>
        <time>2009-11-01T09:10:07Z</time>
      </trkpt>
      <trkpt lat="50.669044" lon="6.408794">
        <ele>403.890000</ele>
        <time>2009-11-01T09:10:16Z</time>
      </trkpt>
      <trkpt lat="50.669246" lon="6.408752">
        <ele>402.930000</ele>
        <time>2009-11-01T09:10:34Z</time>
      </trkpt>
      <trkpt lat="50.669527" lon="6.408690">
        <ele>401.970000</ele>
        <time>2009-11-01T09:10:54Z</time>
      </trkpt>
      <trkpt lat="50.669675" lon="6.408700">
        <ele>401.490000</ele>
        <time>2009-11-01T09:11:06Z</time>
      </trkpt>
      <trkpt lat="50.669894" lon="6.408763">
        <ele>400.050000</ele>
        <time>2009-11-01T09:11:22Z</time>
      </trkpt>
      <trkpt lat="50.670071" lon="6.408857">
        <ele>398.600000</ele>
        <time>2009-11-01T09:11:36Z</time>
      </trkpt>
      <trkpt lat="50.670142" lon="6.408851">
        <ele>398.600000</ele>
        <time>2009-11-01T09:11:42Z</time>
      </trkpt>
      <trkpt lat="50.670312" lon="6.408786">
        <ele>398.120000</ele>
        <time>2009-11-01T09:11:56Z</time>
      </trkpt>
      <trkpt lat="50.670408" lon="6.408706">
        <ele>397.640000</ele>
        <time>2009-11-01T09:12:05Z</time>
      </trkpt>
      <trkpt lat="50.670592" lon="6.408499">
        <ele>395.240000</ele>
        <time>2009-11-01T09:12:26Z</time>
      </trkpt>
      <trkpt lat="50.670685" lon="6.408369">
        <ele>394.760000</ele>
        <time>2009-11-01T09:12:34Z</time>
      </trkpt>
      <trkpt lat="50.670753" lon="6.408295">
        <ele>393.800000</ele>
        <time>2009-11-01T09:12:40Z</time>
      </trkpt>
      <trkpt lat="50.670985" lon="6.408093">
        <ele>393.320000</ele>
        <time>2009-11-01T09:13:00Z</time>
      </trkpt>
      <trkpt lat="50.671055" lon="6.408035">
        <ele>392.840000</ele>
        <time>2009-11-01T09:13:05Z</time>
      </trkpt>
      <trkpt lat="50.671145" lon="6.407982">
        <ele>391.870000</ele>
        <time>2009-11-01T09:13:16Z</time>
      </trkpt>
      <trkpt lat="50.671323" lon="6.407866">
        <ele>390.430000</ele>
        <time>2009-11-01T09:13:32Z</time>
      </trkpt>
      <trkpt lat="50.671380" lon="6.407848">
        <ele>390.910000</ele>
        <time>2009-11-01T09:13:36Z</time>
      </trkpt>
      <trkpt lat="50.671539" lon="6.407733">
        <ele>388.030000</ele>
        <time>2009-11-01T09:13:50Z</time>
      </trkpt>
      <trkpt lat="50.671784" lon="6.407678">
        <ele>387.070000</ele>
        <time>2009-11-01T09:14:12Z</time>
      </trkpt>
      <trkpt lat="50.671982" lon="6.407653">
        <ele>386.110000</ele>
        <time>2009-11-01T09:14:29Z</time>
      </trkpt>
      <trkpt lat="50.672185" lon="6.407656">
        <ele>385.630000</ele>
        <time>2009-11-01T09:14:45Z</time>
      </trkpt>
      <trkpt lat="50.672205" lon="6.407648">
        <ele>385.150000</ele>
        <time>2009-11-01T09:14:47Z</time>
      </trkpt>
      <trkpt lat="50.672351" lon="6.407615">
        <ele>383.700000</ele>
        <time>2009-11-01T09:15:02Z</time>
      </trkpt>
      <trkpt lat="50.672389" lon="6.407608">
        <ele>383.700000</ele>
        <time>2009-11-01T09:15:05Z</time>
      </trkpt>
      <trkpt lat="50.672573" lon="6.407639">
        <ele>381.780000</ele>
        <time>2009-11-01T09:15:23Z</time>
      </trkpt>
      <trkpt lat="50.672808" lon="6.407713">
        <ele>380.820000</ele>
        <time>2009-11-01T09:15:43Z</time>
      </trkpt>
      <trkpt lat="50.672932" lon="6.407699">
        <ele>379.860000</ele>
        <time>2009-11-01T09:15:56Z</time>
      </trkpt>
      <trkpt lat="50.673018" lon="6.407752">
        <ele>379.860000</ele>
        <time>2009-11-01T09:16:11Z</time>
      </trkpt>
      <trkpt lat="50.673046" lon="6.407772">
        <ele>379.860000</ele>
        <time>2009-11-01T09:16:14Z</time>
      </trkpt>
      <trkpt lat="50.673130" lon="6.407824">
        <ele>379.380000</ele>
        <time>2009-11-01T09:16:22Z</time>
      </trkpt>
      <trkpt lat="50.673220" lon="6.407793">
        <ele>379.380000</ele>
        <time>2009-11-01T09:16:35Z</time>
      </trkpt>
      <trkpt lat="50.673465" lon="6.407747">
        <ele>380.340000</ele>
        <time>2009-11-01T09:16:53Z</time>
      </trkpt>
      <trkpt lat="50.673704" lon="6.407680">
        <ele>382.740000</ele>
        <time>2009-11-01T09:17:12Z</time>
      </trkpt>
      <trkpt lat="50.673949" lon="6.407667">
        <ele>383.700000</ele>
        <time>2009-11-01T09:17:33Z</time>
      </trkpt>
      <trkpt lat="50.674172" lon="6.407594">
        <ele>383.220000</ele>
        <time>2009-11-01T09:17:52Z</time>
      </trkpt>
      <trkpt lat="50.674213" lon="6.407572">
        <ele>383.220000</ele>
        <time>2009-11-01T09:17:55Z</time>
      </trkpt>
      <trkpt lat="50.674258" lon="6.407543">
        <ele>383.220000</ele>
        <time>2009-11-01T09:17:59Z</time>
      </trkpt>
      <trkpt lat="50.674446" lon="6.407465">
        <ele>383.220000</ele>
        <time>2009-11-01T09:18:14Z</time>
      </trkpt>
      <trkpt lat="50.674454" lon="6.407475">
        <ele>383.220000</ele>
        <time>2009-11-01T09:18:15Z</time>
      </trkpt>
      <trkpt lat="50.674606" lon="6.407612">
        <ele>384.660000</ele>
        <time>2009-11-01T09:18:28Z</time>
      </trkpt>
      <trkpt lat="50.674721" lon="6.407679">
        <ele>385.630000</ele>
        <time>2009-11-01T09:18:38Z</time>
      </trkpt>
      <trkpt lat="50.674875" lon="6.407801">
        <ele>387.070000</ele>
        <time>2009-11-01T09:18:51Z</time>
      </trkpt>
      <trkpt lat="50.674996" lon="6.407859">
        <ele>387.070000</ele>
        <time>2009-11-01T09:19:00Z</time>
      </trkpt>
      <trkpt lat="50.675117" lon="6.407927">
        <ele>386.590000</ele>
        <time>2009-11-01T09:19:10Z</time>
      </trkpt>
      <trkpt lat="50.675306" lon="6.407789">
        <ele>386.590000</ele>
        <time>2009-11-01T09:19:23Z</time>
      </trkpt>
      <trkpt lat="50.675368" lon="6.407758">
        <ele>386.590000</ele>
        <time>2009-11-01T09:19:27Z</time>
      </trkpt>
      <trkpt lat="50.675561" lon="6.407683">
        <ele>386.110000</ele>
        <time>2009-11-01T09:19:41Z</time>
      </trkpt>
      <trkpt lat="50.675594" lon="6.407673">
        <ele>386.110000</ele>
        <time>2009-11-01T09:19:45Z</time>
      </trkpt>
      <trkpt lat="50.675796" lon="6.407637">
        <ele>385.630000</ele>
        <time>2009-11-01T09:20:01Z</time>
      </trkpt>
      <trkpt lat="50.675835" lon="6.407640">
        <ele>385.150000</ele>
        <time>2009-11-01T09:20:04Z</time>
      </trkpt>
      <trkpt lat="50.676065" lon="6.407521">
        <ele>385.150000</ele>
        <time>2009-11-01T09:20:20Z</time>
      </trkpt>
      <trkpt lat="50.676117" lon="6.407505">
        <ele>383.220000</ele>
        <time>2009-11-01T09:20:24Z</time>
      </trkpt>
      <trkpt lat="50.676260" lon="6.407320">
        <ele>382.260000</ele>
        <time>2009-11-01T09:20:37Z</time>
      </trkpt>
      <trkpt lat="50.676435" lon="6.407140">
        <ele>382.740000</ele>
        <time>2009-11-01T09:20:51Z</time>
      </trkpt>
      <trkpt lat="50.676622" lon="6.406885">
        <ele>381.780000</ele>
        <time>2009-11-01T09:21:08Z</time>
      </trkpt>
      <trkpt lat="50.676787" lon="6.406699">
        <ele>382.740000</ele>
        <time>2009-11-01T09:21:23Z</time>
      </trkpt>
      <trkpt lat="50.676936" lon="6.406495">
        <ele>382.740000</ele>
        <time>2009-11-01T09:21:39Z</time>
      </trkpt>
      <trkpt lat="50.677090" lon="6.406356">
        <ele>382.740000</ele>
        <time>2009-11-01T09:21:54Z</time>
      </trkpt>
      <trkpt lat="50.677270" lon="6.406389">
        <ele>383.220000</ele>
        <time>2009-11-01T09:22:07Z</time>
      </trkpt>
      <trkpt lat="50.677451" lon="6.406421">
        <ele>382.740000</ele>
        <time>2009-11-01T09:22:20Z</time>
      </trkpt>
      <trkpt lat="50.677661" lon="6.406388">
        <ele>382.740000</ele>
        <time>2009-11-01T09:22:33Z</time>
      </trkpt>
      <trkpt lat="50.677761" lon="6.406389">
        <ele>382.740000</ele>
        <time>2009-11-01T09:22:43Z</time>
      </trkpt>
      <trkpt lat="50.677886" lon="6.406365">
        <ele>382.740000</ele>
        <time>2009-11-01T09:22:53Z</time>
      </trkpt>
      <trkpt lat="50.678005" lon="6.406386">
        <ele>382.740000</ele>
        <time>2009-11-01T09:23:08Z</time>
      </trkpt>
      <trkpt lat="50.678190" lon="6.406339">
        <ele>383.220000</ele>
        <time>2009-11-01T09:23:22Z</time>
      </trkpt>
      <trkpt lat="50.678360" lon="6.406356">
        <ele>384.180000</ele>
        <time>2009-11-01T09:23:35Z</time>
      </trkpt>
      <trkpt lat="50.678531" lon="6.406362">
        <ele>384.180000</ele>
        <time>2009-11-01T09:23:50Z</time>
      </trkpt>
      <trkpt lat="50.678573" lon="6.406456">
        <ele>383.220000</ele>
        <time>2009-11-01T09:23:55Z</time>
      </trkpt>
      <trkpt lat="50.678718" lon="6.406648">
        <ele>382.260000</ele>
        <time>2009-11-01T09:24:09Z</time>
      </trkpt>
      <trkpt lat="50.678747" lon="6.406686">
        <ele>381.780000</ele>
        <time>2009-11-01T09:24:12Z</time>
      </trkpt>
      <trkpt lat="50.678839" lon="6.406792">
        <ele>380.340000</ele>
        <time>2009-11-01T09:24:20Z</time>
      </trkpt>
      <trkpt lat="50.678992" lon="6.406948">
        <ele>378.900000</ele>
        <time>2009-11-01T09:24:33Z</time>
      </trkpt>
      <trkpt lat="50.679033" lon="6.407016">
        <ele>377.940000</ele>
        <time>2009-11-01T09:24:38Z</time>
      </trkpt>
      <trkpt lat="50.679075" lon="6.407113">
        <ele>377.450000</ele>
        <time>2009-11-01T09:24:43Z</time>
      </trkpt>
      <trkpt lat="50.679149" lon="6.407115">
        <ele>376.010000</ele>
        <time>2009-11-01T09:24:48Z</time>
      </trkpt>
      <trkpt lat="50.679280" lon="6.406885">
        <ele>376.490000</ele>
        <time>2009-11-01T09:25:01Z</time>
      </trkpt>
      <trkpt lat="50.679478" lon="6.406542">
        <ele>376.010000</ele>
        <time>2009-11-01T09:25:19Z</time>
      </trkpt>
      <trkpt lat="50.679617" lon="6.406316">
        <ele>375.530000</ele>
        <time>2009-11-01T09:25:34Z</time>
      </trkpt>
      <trkpt lat="50.679744" lon="6.406090">
        <ele>376.010000</ele>
        <time>2009-11-01T09:25:49Z</time>
      </trkpt>
      <trkpt lat="50.679855" lon="6.405917">
        <ele>375.530000</ele>
        <time>2009-11-01T09:26:02Z</time>
      </trkpt>
      <trkpt lat="50.680013" lon="6.405677">
        <ele>376.010000</ele>
        <time>2009-11-01T09:26:16Z</time>
      </trkpt>
      <trkpt lat="50.680177" lon="6.405408">
        <ele>376.970000</ele>
        <time>2009-11-01T09:26:32Z</time>
      </trkpt>
      <trkpt lat="50.680287" lon="6.405204">
        <ele>376.970000</ele>
        <time>2009-11-01T09:26:46Z</time>
      </trkpt>
      <trkpt lat="50.680405" lon="6.405018">
        <ele>377.450000</ele>
        <time>2009-11-01T09:26:59Z</time>
      </trkpt>
      <trkpt lat="50.680522" lon="6.404883">
        <ele>377.450000</ele>
        <time>2009-11-01T09:27:12Z</time>
      </trkpt>
      <trkpt lat="50.680665" lon="6.404806">
        <ele>376.010000</ele>
        <time>2009-11-01T09:27:23Z</time>
      </trkpt>
      <trkpt lat="50.680794" lon="6.405037">
        <ele>372.650000</ele>
        <time>2009-11-01T09:27:37Z</time>
      </trkpt>
      <trkpt lat="50.680913" lon="6.405251">
        <ele>369.280000</ele>
        <time>2009-11-01T09:27:51Z</time>
      </trkpt>
      <trkpt lat="50.680943" lon="6.405333">
        <ele>368.320000</ele>
        <time>2009-11-01T09:27:56Z</time>
      </trkpt>
      <trkpt lat="50.681059" lon="6.405587">
        <ele>364.480000</ele>
        <time>2009-11-01T09:28:10Z</time>
      </trkpt>
      <trkpt lat="50.681111" lon="6.405698">
        <ele>362.550000</ele>
        <time>2009-11-01T09:28:17Z</time>
      </trkpt>
      <trkpt lat="50.681146" lon="6.405760">
        <ele>361.590000</ele>
        <time>2009-11-01T09:28:21Z</time>
      </trkpt>
      <trkpt lat="50.681179" lon="6.405827">
        <ele>360.150000</ele>
        <time>2009-11-01T09:28:27Z</time>
      </trkpt>
      <trkpt lat="50.681210" lon="6.405886">
        <ele>359.190000</ele>
        <time>2009-11-01T09:28:32Z</time>
      </trkpt>
      <trkpt lat="50.681230" lon="6.405938">
        <ele>357.750000</ele>
        <time>2009-11-01T09:28:36Z</time>
      </trkpt>
      <trkpt lat="50.681284" lon="6.406092">
        <ele>355.340000</ele>
        <time>2009-11-01T09:28:45Z</time>
      </trkpt>
      <trkpt lat="50.681335" lon="6.406176">
        <ele>353.420000</ele>
        <time>2009-11-01T09:28:52Z</time>
      </trkpt>
      <trkpt lat="50.681361" lon="6.406233">
        <ele>351.980000</ele>
        <time>2009-11-01T09:28:56Z</time>
      </trkpt>
      <trkpt lat="50.681371" lon="6.406268">
        <ele>351.980000</ele>
        <time>2009-11-01T09:28:58Z</time>
      </trkpt>
      <trkpt lat="50.681435" lon="6.406362">
        <ele>350.060000</ele>
        <time>2009-11-01T09:29:06Z</time>
      </trkpt>
      <trkpt lat="50.681479" lon="6.406501">
        <ele>348.130000</ele>
        <time>2009-11-01T09:29:15Z</time>
      </trkpt>
      <trkpt lat="50.681467" lon="6.406562">
        <ele>348.130000</ele>
        <time>2009-11-01T09:29:19Z</time>
      </trkpt>
      <trkpt lat="50.681466" lon="6.406596">
        <ele>347.650000</ele>
        <time>2009-11-01T09:29:22Z</time>
      </trkpt>
      <trkpt lat="50.681476" lon="6.406664">
        <ele>346.690000</ele>
        <time>2009-11-01T09:29:26Z</time>
      </trkpt>
      <trkpt lat="50.681409" lon="6.406988">
        <ele>344.770000</ele>
        <time>2009-11-01T09:29:41Z</time>
      </trkpt>
      <trkpt lat="50.681340" lon="6.407180">
        <ele>343.810000</ele>
        <time>2009-11-01T09:29:52Z</time>
      </trkpt>
      <trkpt lat="50.681296" lon="6.407364">
        <ele>343.330000</ele>
        <time>2009-11-01T09:30:02Z</time>
      </trkpt>
      <trkpt lat="50.681267" lon="6.407460">
        <ele>343.330000</ele>
        <time>2009-11-01T09:30:07Z</time>
      </trkpt>
      <trkpt lat="50.681166" lon="6.407818">
        <ele>342.370000</ele>
        <time>2009-11-01T09:30:25Z</time>
      </trkpt>
      <trkpt lat="50.681122" lon="6.408001">
        <ele>341.890000</ele>
        <time>2009-11-01T09:30:32Z</time>
      </trkpt>
      <trkpt lat="50.681073" lon="6.408198">
        <ele>340.920000</ele>
        <time>2009-11-01T09:30:42Z</time>
      </trkpt>
      <trkpt lat="50.681067" lon="6.408265">
        <ele>340.920000</ele>
        <time>2009-11-01T09:30:46Z</time>
      </trkpt>
      <trkpt lat="50.681068" lon="6.408339">
        <ele>340.440000</ele>
        <time>2009-11-01T09:30:50Z</time>
      </trkpt>
      <trkpt lat="50.681043" lon="6.408667">
        <ele>339.480000</ele>
        <time>2009-11-01T09:31:04Z</time>
      </trkpt>
      <trkpt lat="50.681034" lon="6.408806">
        <ele>339.000000</ele>
        <time>2009-11-01T09:31:09Z</time>
      </trkpt>
      <trkpt lat="50.681032" lon="6.408848">
        <ele>339.000000</ele>
        <time>2009-11-01T09:31:11Z</time>
      </trkpt>
      <trkpt lat="50.681035" lon="6.409038">
        <ele>338.040000</ele>
        <time>2009-11-01T09:31:20Z</time>
      </trkpt>
      <trkpt lat="50.681031" lon="6.409328">
        <ele>337.080000</ele>
        <time>2009-11-01T09:31:32Z</time>
      </trkpt>
      <trkpt lat="50.681030" lon="6.409378">
        <ele>337.080000</ele>
        <time>2009-11-01T09:31:34Z</time>
      </trkpt>
      <trkpt lat="50.680988" lon="6.409561">
        <ele>336.600000</ele>
        <time>2009-11-01T09:31:47Z</time>
      </trkpt>
      <trkpt lat="50.680895" lon="6.409689">
        <ele>336.120000</ele>
        <time>2009-11-01T09:31:56Z</time>
      </trkpt>
      <trkpt lat="50.680851" lon="6.409758">
        <ele>336.600000</ele>
        <time>2009-11-01T09:32:11Z</time>
      </trkpt>
      <trkpt lat="50.680861" lon="6.409794">
        <ele>336.600000</ele>
        <time>2009-11-01T09:32:14Z</time>
      </trkpt>
      <trkpt lat="50.680870" lon="6.409972">
        <ele>336.120000</ele>
        <time>2009-11-01T09:32:21Z</time>
      </trkpt>
      <trkpt lat="50.680848" lon="6.410209">
        <ele>333.710000</ele>
        <time>2009-11-01T09:32:32Z</time>
      </trkpt>
      <trkpt lat="50.680842" lon="6.410246">
        <ele>334.200000</ele>
        <time>2009-11-01T09:32:34Z</time>
      </trkpt>
      <trkpt lat="50.680834" lon="6.410455">
        <ele>333.230000</ele>
        <time>2009-11-01T09:32:43Z</time>
      </trkpt>
      <trkpt lat="50.680801" lon="6.410699">
        <ele>332.270000</ele>
        <time>2009-11-01T09:32:55Z</time>
      </trkpt>
      <trkpt lat="50.680724" lon="6.410920">
        <ele>331.790000</ele>
        <time>2009-11-01T09:33:08Z</time>
      </trkpt>
      <trkpt lat="50.680694" lon="6.410984">
        <ele>331.310000</ele>
        <time>2009-11-01T09:33:12Z</time>
      </trkpt>
      <trkpt lat="50.680629" lon="6.411210">
        <ele>330.830000</ele>
        <time>2009-11-01T09:33:26Z</time>
      </trkpt>
      <trkpt lat="50.680505" lon="6.411413">
        <ele>329.870000</ele>
        <time>2009-11-01T09:33:38Z</time>
      </trkpt>
      <trkpt lat="50.680382" lon="6.411627">
        <ele>328.910000</ele>
        <time>2009-11-01T09:33:51Z</time>
      </trkpt>
      <trkpt lat="50.680284" lon="6.411819">
        <ele>328.430000</ele>
        <time>2009-11-01T09:34:02Z</time>
      </trkpt>
      <trkpt lat="50.680250" lon="6.412045">
        <ele>327.470000</ele>
        <time>2009-11-01T09:34:14Z</time>
      </trkpt>
      <trkpt lat="50.679940" lon="6.412027">
        <ele>326.500000</ele>
        <time>2009-11-01T09:34:38Z</time>
      </trkpt>
      <trkpt lat="50.679792" lon="6.411995">
        <ele>326.990000</ele>
        <time>2009-11-01T09:34:50Z</time>
      </trkpt>
      <trkpt lat="50.679479" lon="6.411780">
        <ele>326.500000</ele>
        <time>2009-11-01T09:35:15Z</time>
      </trkpt>
      <trkpt lat="50.679257" lon="6.411732">
        <ele>326.500000</ele>
        <time>2009-11-01T09:35:29Z</time>
      </trkpt>
      <trkpt lat="50.679141" lon="6.411589">
        <ele>326.500000</ele>
        <time>2009-11-01T09:35:39Z</time>
      </trkpt>
      <trkpt lat="50.679099" lon="6.411549">
        <ele>326.990000</ele>
        <time>2009-11-01T09:35:42Z</time>
      </trkpt>
      <trkpt lat="50.679002" lon="6.411467">
        <ele>326.990000</ele>
        <time>2009-11-01T09:35:50Z</time>
      </trkpt>
      <trkpt lat="50.678856" lon="6.411330">
        <ele>326.990000</ele>
        <time>2009-11-01T09:36:03Z</time>
      </trkpt>
      <trkpt lat="50.678705" lon="6.411252">
        <ele>326.500000</ele>
        <time>2009-11-01T09:36:15Z</time>
      </trkpt>
      <trkpt lat="50.678582" lon="6.411185">
        <ele>326.020000</ele>
        <time>2009-11-01T09:36:25Z</time>
      </trkpt>
      <trkpt lat="50.678549" lon="6.411147">
        <ele>326.020000</ele>
        <time>2009-11-01T09:36:28Z</time>
      </trkpt>
      <trkpt lat="50.678482" lon="6.411100">
        <ele>326.020000</ele>
        <time>2009-11-01T09:36:35Z</time>
      </trkpt>
      <trkpt lat="50.678463" lon="6.411072">
        <ele>326.020000</ele>
        <time>2009-11-01T09:36:37Z</time>
      </trkpt>
      <trkpt lat="50.678372" lon="6.411066">
        <ele>326.020000</ele>
        <time>2009-11-01T09:36:41Z</time>
      </trkpt>
      <trkpt lat="50.678225" lon="6.410982">
        <ele>326.500000</ele>
        <time>2009-11-01T09:36:54Z</time>
      </trkpt>
      <trkpt lat="50.678109" lon="6.410920">
        <ele>326.500000</ele>
        <time>2009-11-01T09:37:06Z</time>
      </trkpt>
      <trkpt lat="50.677981" lon="6.411020">
        <ele>326.500000</ele>
        <time>2009-11-01T09:37:19Z</time>
      </trkpt>
      <trkpt lat="50.677783" lon="6.411290">
        <ele>326.500000</ele>
        <time>2009-11-01T09:37:33Z</time>
      </trkpt>
      <trkpt lat="50.677747" lon="6.411452">
        <ele>326.500000</ele>
        <time>2009-11-01T09:37:42Z</time>
      </trkpt>
      <trkpt lat="50.677818" lon="6.411730">
        <ele>326.990000</ele>
        <time>2009-11-01T09:37:56Z</time>
      </trkpt>
      <trkpt lat="50.677863" lon="6.411842">
        <ele>326.990000</ele>
        <time>2009-11-01T09:38:01Z</time>
      </trkpt>
      <trkpt lat="50.677902" lon="6.412072">
        <ele>326.990000</ele>
        <time>2009-11-01T09:38:12Z</time>
      </trkpt>
      <trkpt lat="50.677917" lon="6.412189">
        <ele>326.500000</ele>
        <time>2009-11-01T09:38:19Z</time>
      </trkpt>
      <trkpt lat="50.677993" lon="6.412626">
        <ele>326.990000</ele>
        <time>2009-11-01T09:38:40Z</time>
      </trkpt>
      <trkpt lat="50.678066" lon="6.412913">
        <ele>326.500000</ele>
        <time>2009-11-01T09:38:52Z</time>
      </trkpt>
      <trkpt lat="50.678071" lon="6.412950">
        <ele>326.500000</ele>
        <time>2009-11-01T09:38:54Z</time>
      </trkpt>
      <trkpt lat="50.678075" lon="6.412997">
        <ele>326.500000</ele>
        <time>2009-11-01T09:38:56Z</time>
      </trkpt>
      <trkpt lat="50.678085" lon="6.413104">
        <ele>326.500000</ele>
        <time>2009-11-01T09:39:03Z</time>
      </trkpt>
      <trkpt lat="50.678095" lon="6.413205">
        <ele>326.020000</ele>
        <time>2009-11-01T09:39:09Z</time>
      </trkpt>
      <trkpt lat="50.678105" lon="6.413406">
        <ele>326.020000</ele>
        <time>2009-11-01T09:39:20Z</time>
      </trkpt>
      <trkpt lat="50.678110" lon="6.413766">
        <ele>325.540000</ele>
        <time>2009-11-01T09:39:35Z</time>
      </trkpt>
      <trkpt lat="50.678143" lon="6.413792">
        <ele>325.540000</ele>
        <time>2009-11-01T09:39:37Z</time>
      </trkpt>
      <trkpt lat="50.678329" lon="6.413855">
        <ele>325.060000</ele>
        <time>2009-11-01T09:39:49Z</time>
      </trkpt>
      <trkpt lat="50.678463" lon="6.414037">
        <ele>324.580000</ele>
        <time>2009-11-01T09:40:05Z</time>
      </trkpt>
      <trkpt lat="50.678671" lon="6.414317">
        <ele>322.180000</ele>
        <time>2009-11-01T09:40:23Z</time>
      </trkpt>
      <trkpt lat="50.678915" lon="6.414485">
        <ele>320.260000</ele>
        <time>2009-11-01T09:40:39Z</time>
      </trkpt>
      <trkpt lat="50.678927" lon="6.414517">
        <ele>320.260000</ele>
        <time>2009-11-01T09:40:41Z</time>
      </trkpt>
      <trkpt lat="50.678964" lon="6.414618">
        <ele>319.780000</ele>
        <time>2009-11-01T09:40:47Z</time>
      </trkpt>
      <trkpt lat="50.679005" lon="6.414742">
        <ele>319.780000</ele>
        <time>2009-11-01T09:40:52Z</time>
      </trkpt>
      <trkpt lat="50.679176" lon="6.414906">
        <ele>319.300000</ele>
        <time>2009-11-01T09:41:02Z</time>
      </trkpt>
      <trkpt lat="50.679198" lon="6.414913">
        <ele>319.300000</ele>
        <time>2009-11-01T09:41:03Z</time>
      </trkpt>
      <trkpt lat="50.679265" lon="6.415078">
        <ele>319.300000</ele>
        <time>2009-11-01T09:41:10Z</time>
      </trkpt>
      <trkpt lat="50.679277" lon="6.415160">
        <ele>319.780000</ele>
        <time>2009-11-01T09:41:15Z</time>
      </trkpt>
      <trkpt lat="50.679335" lon="6.415384">
        <ele>320.740000</ele>
        <time>2009-11-01T09:41:28Z</time>
      </trkpt>
      <trkpt lat="50.679332" lon="6.415449">
        <ele>320.740000</ele>
        <time>2009-11-01T09:41:31Z</time>
      </trkpt>
      <trkpt lat="50.679231" lon="6.415697">
        <ele>321.220000</ele>
        <time>2009-11-01T09:41:45Z</time>
      </trkpt>
      <trkpt lat="50.679155" lon="6.415825">
        <ele>321.700000</ele>
        <time>2009-11-01T09:41:52Z</time>
      </trkpt>
      <trkpt lat="50.679029" lon="6.415951">
        <ele>323.620000</ele>
        <time>2009-11-01T09:42:05Z</time>
      </trkpt>
      <trkpt lat="50.678864" lon="6.416133">
        <ele>324.580000</ele>
        <time>2009-11-01T09:42:19Z</time>
      </trkpt>
      <trkpt lat="50.678804" lon="6.416152">
        <ele>325.060000</ele>
        <time>2009-11-01T09:42:24Z</time>
      </trkpt>
      <trkpt lat="50.678664" lon="6.416241">
        <ele>324.580000</ele>
        <time>2009-11-01T09:42:35Z</time>
      </trkpt>
      <trkpt lat="50.678620" lon="6.416267">
        <ele>324.580000</ele>
        <time>2009-11-01T09:42:40Z</time>
      </trkpt>
      <trkpt lat="50.678479" lon="6.416490">
        <ele>324.580000</ele>
        <time>2009-11-01T09:42:53Z</time>
      </trkpt>
      <trkpt lat="50.678447" lon="6.416542">
        <ele>325.060000</ele>
        <time>2009-11-01T09:42:56Z</time>
      </trkpt>
      <trkpt lat="50.678385" lon="6.416742">
        <ele>325.060000</ele>
        <time>2009-11-01T09:43:07Z</time>
      </trkpt>
      <trkpt lat="50.678336" lon="6.416854">
        <ele>325.540000</ele>
        <time>2009-11-01T09:43:14Z</time>
      </trkpt>
      <trkpt lat="50.678221" lon="6.417049">
        <ele>326.990000</ele>
        <time>2009-11-01T09:43:27Z</time>
      </trkpt>
      <trkpt lat="50.678108" lon="6.417230">
        <ele>328.910000</ele>
        <time>2009-11-01T09:43:42Z</time>
      </trkpt>
      <trkpt lat="50.678100" lon="6.417242">
        <ele>328.910000</ele>
        <time>2009-11-01T09:43:43Z</time>
      </trkpt>
      <trkpt lat="50.678088" lon="6.417290">
        <ele>329.390000</ele>
        <time>2009-11-01T09:43:46Z</time>
      </trkpt>
      <trkpt lat="50.678038" lon="6.417401">
        <ele>330.830000</ele>
        <time>2009-11-01T09:43:53Z</time>
      </trkpt>
      <trkpt lat="50.677852" lon="6.417581">
        <ele>332.270000</ele>
        <time>2009-11-01T09:44:08Z</time>
      </trkpt>
      <trkpt lat="50.677709" lon="6.417635">
        <ele>334.680000</ele>
        <time>2009-11-01T09:44:22Z</time>
      </trkpt>
      <trkpt lat="50.677661" lon="6.417611">
        <ele>335.160000</ele>
        <time>2009-11-01T09:44:25Z</time>
      </trkpt>
      <trkpt lat="50.677435" lon="6.417459">
        <ele>338.520000</ele>
        <time>2009-11-01T09:44:46Z</time>
      </trkpt>
      <trkpt lat="50.677333" lon="6.417190">
        <ele>340.920000</ele>
        <time>2009-11-01T09:45:04Z</time>
      </trkpt>
      <trkpt lat="50.677227" lon="6.416949">
        <ele>343.810000</ele>
        <time>2009-11-01T09:45:23Z</time>
      </trkpt>
      <trkpt lat="50.677118" lon="6.416640">
        <ele>346.210000</ele>
        <time>2009-11-01T09:45:42Z</time>
      </trkpt>
      <trkpt lat="50.677055" lon="6.416466">
        <ele>348.620000</ele>
        <time>2009-11-01T09:45:56Z</time>
      </trkpt>
      <trkpt lat="50.676910" lon="6.416433">
        <ele>348.130000</ele>
        <time>2009-11-01T09:46:14Z</time>
      </trkpt>
      <trkpt lat="50.676877" lon="6.416451">
        <ele>348.620000</ele>
        <time>2009-11-01T09:46:16Z</time>
      </trkpt>
      <trkpt lat="50.676616" lon="6.416421">
        <ele>347.170000</ele>
        <time>2009-11-01T09:46:38Z</time>
      </trkpt>
      <trkpt lat="50.676567" lon="6.416418">
        <ele>347.170000</ele>
        <time>2009-11-01T09:46:42Z</time>
      </trkpt>
      <trkpt lat="50.676342" lon="6.416335">
        <ele>347.650000</ele>
        <time>2009-11-01T09:46:57Z</time>
      </trkpt>
      <trkpt lat="50.676287" lon="6.416310">
        <ele>348.130000</ele>
        <time>2009-11-01T09:47:01Z</time>
      </trkpt>
      <trkpt lat="50.676222" lon="6.416285">
        <ele>346.690000</ele>
        <time>2009-11-01T09:47:05Z</time>
      </trkpt>
      <trkpt lat="50.676039" lon="6.416198">
        <ele>347.170000</ele>
        <time>2009-11-01T09:47:20Z</time>
      </trkpt>
      <trkpt lat="50.676008" lon="6.416184">
        <ele>347.170000</ele>
        <time>2009-11-01T09:47:23Z</time>
      </trkpt>
      <trkpt lat="50.675959" lon="6.416087">
        <ele>346.210000</ele>
        <time>2009-11-01T09:47:30Z</time>
      </trkpt>
      <trkpt lat="50.675948" lon="6.416056">
        <ele>346.210000</ele>
        <time>2009-11-01T09:47:32Z</time>
      </trkpt>
      <trkpt lat="50.675843" lon="6.415947">
        <ele>346.210000</ele>
        <time>2009-11-01T09:47:41Z</time>
      </trkpt>
      <trkpt lat="50.675647" lon="6.415838">
        <ele>344.770000</ele>
        <time>2009-11-01T09:47:56Z</time>
      </trkpt>
      <trkpt lat="50.675325" lon="6.415846">
        <ele>345.730000</ele>
        <time>2009-11-01T09:48:18Z</time>
      </trkpt>
      <trkpt lat="50.675137" lon="6.415842">
        <ele>344.770000</ele>
        <time>2009-11-01T09:48:29Z</time>
      </trkpt>
      <trkpt lat="50.675004" lon="6.415997">
        <ele>344.770000</ele>
        <time>2009-11-01T09:48:42Z</time>
      </trkpt>
      <trkpt lat="50.674909" lon="6.416212">
        <ele>345.250000</ele>
        <time>2009-11-01T09:48:52Z</time>
      </trkpt>
      <trkpt lat="50.674903" lon="6.416238">
        <ele>345.250000</ele>
        <time>2009-11-01T09:48:54Z</time>
      </trkpt>
      <trkpt lat="50.674801" lon="6.416473">
        <ele>346.690000</ele>
        <time>2009-11-01T09:49:07Z</time>
      </trkpt>
      <trkpt lat="50.674555" lon="6.416735">
        <ele>347.650000</ele>
        <time>2009-11-01T09:49:29Z</time>
      </trkpt>
      <trkpt lat="50.674362" lon="6.416833">
        <ele>346.210000</ele>
        <time>2009-11-01T09:49:49Z</time>
      </trkpt>
      <trkpt lat="50.674305" lon="6.416854">
        <ele>345.730000</ele>
        <time>2009-11-01T09:49:54Z</time>
      </trkpt>
      <trkpt lat="50.674046" lon="6.416913">
        <ele>346.210000</ele>
        <time>2009-11-01T09:50:15Z</time>
      </trkpt>
      <trkpt lat="50.673756" lon="6.416898">
        <ele>348.620000</ele>
        <time>2009-11-01T09:50:37Z</time>
      </trkpt>
      <trkpt lat="50.673536" lon="6.416674">
        <ele>350.540000</ele>
        <time>2009-11-01T09:50:54Z</time>
      </trkpt>
      <trkpt lat="50.673370" lon="6.416543">
        <ele>352.940000</ele>
        <time>2009-11-01T09:51:08Z</time>
      </trkpt>
      <trkpt lat="50.673342" lon="6.416535">
        <ele>352.940000</ele>
        <time>2009-11-01T09:51:10Z</time>
      </trkpt>
      <trkpt lat="50.673238" lon="6.416293">
        <ele>353.420000</ele>
        <time>2009-11-01T09:51:24Z</time>
      </trkpt>
      <trkpt lat="50.673148" lon="6.416229">
        <ele>354.860000</ele>
        <time>2009-11-01T09:51:31Z</time>
      </trkpt>
      <trkpt lat="50.673106" lon="6.416099">
        <ele>355.830000</ele>
        <time>2009-11-01T09:51:38Z</time>
      </trkpt>
      <trkpt lat="50.673096" lon="6.416045">
        <ele>356.310000</ele>
        <time>2009-11-01T09:51:40Z</time>
      </trkpt>
      <trkpt lat="50.673095" lon="6.415870">
        <ele>356.790000</ele>
        <time>2009-11-01T09:51:47Z</time>
      </trkpt>
      <trkpt lat="50.673084" lon="6.415586">
        <ele>357.750000</ele>
        <time>2009-11-01T09:52:00Z</time>
      </trkpt>
      <trkpt lat="50.673050" lon="6.415502">
        <ele>357.750000</ele>
        <time>2009-11-01T09:52:05Z</time>
      </trkpt>
      <trkpt lat="50.672999" lon="6.415266">
        <ele>357.750000</ele>
        <time>2009-11-01T09:52:17Z</time>
      </trkpt>
      <trkpt lat="50.672955" lon="6.415074">
        <ele>357.750000</ele>
        <time>2009-11-01T09:52:28Z</time>
      </trkpt>
      <trkpt lat="50.672959" lon="6.414920">
        <ele>357.750000</ele>
        <time>2009-11-01T09:52:38Z</time>
      </trkpt>
      <trkpt lat="50.672924" lon="6.414778">
        <ele>357.270000</ele>
        <time>2009-11-01T09:52:43Z</time>
      </trkpt>
      <trkpt lat="50.672897" lon="6.414706">
        <ele>357.750000</ele>
        <time>2009-11-01T09:52:47Z</time>
      </trkpt>
      <trkpt lat="50.672789" lon="6.414457">
        <ele>358.230000</ele>
        <time>2009-11-01T09:53:01Z</time>
      </trkpt>
      <trkpt lat="50.672784" lon="6.414438">
        <ele>357.750000</ele>
        <time>2009-11-01T09:53:02Z</time>
      </trkpt>
      <trkpt lat="50.672627" lon="6.414332">
        <ele>357.750000</ele>
        <time>2009-11-01T09:53:15Z</time>
      </trkpt>
      <trkpt lat="50.672458" lon="6.414292">
        <ele>359.190000</ele>
        <time>2009-11-01T09:53:27Z</time>
      </trkpt>
      <trkpt lat="50.672324" lon="6.414222">
        <ele>359.190000</ele>
        <time>2009-11-01T09:53:41Z</time>
      </trkpt>
      <trkpt lat="50.672096" lon="6.414128">
        <ele>358.710000</ele>
        <time>2009-11-01T09:54:00Z</time>
      </trkpt>
      <trkpt lat="50.671903" lon="6.414072">
        <ele>356.790000</ele>
        <time>2009-11-01T09:54:16Z</time>
      </trkpt>
      <trkpt lat="50.671796" lon="6.414079">
        <ele>355.340000</ele>
        <time>2009-11-01T09:54:25Z</time>
      </trkpt>
      <trkpt lat="50.671558" lon="6.414089">
        <ele>351.980000</ele>
        <time>2009-11-01T09:54:42Z</time>
      </trkpt>
      <trkpt lat="50.671356" lon="6.414101">
        <ele>349.100000</ele>
        <time>2009-11-01T09:54:56Z</time>
      </trkpt>
      <trkpt lat="50.671146" lon="6.414137">
        <ele>345.730000</ele>
        <time>2009-11-01T09:55:14Z</time>
      </trkpt>
      <trkpt lat="50.670961" lon="6.414237">
        <ele>343.810000</ele>
        <time>2009-11-01T09:55:32Z</time>
      </trkpt>
      <trkpt lat="50.670786" lon="6.414224">
        <ele>343.810000</ele>
        <time>2009-11-01T09:55:47Z</time>
      </trkpt>
      <trkpt lat="50.670599" lon="6.414247">
        <ele>343.330000</ele>
        <time>2009-11-01T09:56:05Z</time>
      </trkpt>
      <trkpt lat="50.670496" lon="6.414482">
        <ele>344.290000</ele>
        <time>2009-11-01T09:56:21Z</time>
      </trkpt>
      <trkpt lat="50.670545" lon="6.414587">
        <ele>343.810000</ele>
        <time>2009-11-01T09:56:28Z</time>
      </trkpt>
      <trkpt lat="50.670628" lon="6.414688">
        <ele>343.810000</ele>
        <time>2009-11-01T09:56:49Z</time>
      </trkpt>
      <trkpt lat="50.670715" lon="6.414920">
        <ele>343.810000</ele>
        <time>2009-11-01T09:57:12Z</time>
      </trkpt>
      <trkpt lat="50.670717" lon="6.414965">
        <ele>344.290000</ele>
        <time>2009-11-01T09:57:15Z</time>
      </trkpt>
      <trkpt lat="50.670736" lon="6.415208">
        <ele>344.290000</ele>
        <time>2009-11-01T09:57:27Z</time>
      </trkpt>
      <trkpt lat="50.670772" lon="6.415567">
        <ele>347.170000</ele>
        <time>2009-11-01T09:57:46Z</time>
      </trkpt>
      <trkpt lat="50.670784" lon="6.415913">
        <ele>350.060000</ele>
        <time>2009-11-01T09:58:04Z</time>
      </trkpt>
      <trkpt lat="50.670777" lon="6.415929">
        <ele>350.060000</ele>
        <time>2009-11-01T09:58:05Z</time>
      </trkpt>
      <trkpt lat="50.670733" lon="6.416259">
        <ele>353.420000</ele>
        <time>2009-11-01T09:58:22Z</time>
      </trkpt>
      <trkpt lat="50.670684" lon="6.416418">
        <ele>354.860000</ele>
        <time>2009-11-01T09:58:33Z</time>
      </trkpt>
      <trkpt lat="50.670525" lon="6.416651">
        <ele>358.230000</ele>
        <time>2009-11-01T09:58:52Z</time>
      </trkpt>
      <trkpt lat="50.670333" lon="6.416849">
        <ele>359.670000</ele>
        <time>2009-11-01T09:59:15Z</time>
      </trkpt>
      <trkpt lat="50.670234" lon="6.417086">
        <ele>363.040000</ele>
        <time>2009-11-01T09:59:30Z</time>
      </trkpt>
      <trkpt lat="50.670224" lon="6.417111">
        <ele>363.040000</ele>
        <time>2009-11-01T09:59:31Z</time>
      </trkpt>
      <trkpt lat="50.670140" lon="6.417379">
        <ele>365.440000</ele>
        <time>2009-11-01T09:59:52Z</time>
      </trkpt>
      <trkpt lat="50.670032" lon="6.417643">
        <ele>367.840000</ele>
        <time>2009-11-01T10:00:09Z</time>
      </trkpt>
      <trkpt lat="50.670025" lon="6.417659">
        <ele>367.360000</ele>
        <time>2009-11-01T10:00:10Z</time>
      </trkpt>
      <trkpt lat="50.669980" lon="6.417774">
        <ele>367.840000</ele>
        <time>2009-11-01T10:00:15Z</time>
      </trkpt>
      <trkpt lat="50.669930" lon="6.417967">
        <ele>367.840000</ele>
        <time>2009-11-01T10:00:23Z</time>
      </trkpt>
      <trkpt lat="50.669824" lon="6.418149">
        <ele>367.360000</ele>
        <time>2009-11-01T10:00:35Z</time>
      </trkpt>
      <trkpt lat="50.669707" lon="6.418316">
        <ele>367.840000</ele>
        <time>2009-11-01T10:00:46Z</time>
      </trkpt>
      <trkpt lat="50.669594" lon="6.418468">
        <ele>367.360000</ele>
        <time>2009-11-01T10:01:01Z</time>
      </trkpt>
      <trkpt lat="50.669283" lon="6.418600">
        <ele>366.880000</ele>
        <time>2009-11-01T10:01:21Z</time>
      </trkpt>
      <trkpt lat="50.669127" lon="6.418600">
        <ele>366.400000</ele>
        <time>2009-11-01T10:01:32Z</time>
      </trkpt>
      <trkpt lat="50.668983" lon="6.418580">
        <ele>366.400000</ele>
        <time>2009-11-01T10:01:41Z</time>
      </trkpt>
      <trkpt lat="50.668837" lon="6.418566">
        <ele>366.400000</ele>
        <time>2009-11-01T10:01:53Z</time>
      </trkpt>
      <trkpt lat="50.668724" lon="6.418576">
        <ele>366.400000</ele>
        <time>2009-11-01T10:02:04Z</time>
      </trkpt>
      <trkpt lat="50.668619" lon="6.418630">
        <ele>366.400000</ele>
        <time>2009-11-01T10:02:12Z</time>
      </trkpt>
      <trkpt lat="50.668418" lon="6.418668">
        <ele>366.400000</ele>
        <time>2009-11-01T10:02:27Z</time>
      </trkpt>
      <trkpt lat="50.668276" lon="6.418718">
        <ele>365.920000</ele>
        <time>2009-11-01T10:02:39Z</time>
      </trkpt>
      <trkpt lat="50.668078" lon="6.418836">
        <ele>365.920000</ele>
        <time>2009-11-01T10:02:58Z</time>
      </trkpt>
      <trkpt lat="50.667871" lon="6.418971">
        <ele>365.920000</ele>
        <time>2009-11-01T10:03:15Z</time>
      </trkpt>
      <trkpt lat="50.667855" lon="6.419004">
        <ele>365.920000</ele>
        <time>2009-11-01T10:03:18Z</time>
      </trkpt>
      <trkpt lat="50.667870" lon="6.419264">
        <ele>366.400000</ele>
        <time>2009-11-01T10:03:33Z</time>
      </trkpt>
      <trkpt lat="50.667889" lon="6.419301">
        <ele>366.400000</ele>
        <time>2009-11-01T10:03:35Z</time>
      </trkpt>
      <trkpt lat="50.667923" lon="6.419407">
        <ele>366.880000</ele>
        <time>2009-11-01T10:03:40Z</time>
      </trkpt>
      <trkpt lat="50.667957" lon="6.419421">
        <ele>366.880000</ele>
        <time>2009-11-01T10:03:42Z</time>
      </trkpt>
      <trkpt lat="50.668030" lon="6.419617">
        <ele>366.880000</ele>
        <time>2009-11-01T10:03:54Z</time>
      </trkpt>
      <trkpt lat="50.668071" lon="6.419641">
        <ele>366.880000</ele>
        <time>2009-11-01T10:03:57Z</time>
      </trkpt>
      <trkpt lat="50.668189" lon="6.419744">
        <ele>366.880000</ele>
        <time>2009-11-01T10:04:03Z</time>
      </trkpt>
      <trkpt lat="50.668270" lon="6.419782">
        <ele>366.400000</ele>
        <time>2009-11-01T10:04:08Z</time>
      </trkpt>
      <trkpt lat="50.668439" lon="6.419897">
        <ele>366.400000</ele>
        <time>2009-11-01T10:04:18Z</time>
      </trkpt>
      <trkpt lat="50.668578" lon="6.420072">
        <ele>366.400000</ele>
        <time>2009-11-01T10:04:29Z</time>
      </trkpt>
      <trkpt lat="50.668551" lon="6.420176">
        <ele>366.400000</ele>
        <time>2009-11-01T10:04:33Z</time>
      </trkpt>
      <trkpt lat="50.668687" lon="6.420342">
        <ele>366.400000</ele>
        <time>2009-11-01T10:04:44Z</time>
      </trkpt>
      <trkpt lat="50.668676" lon="6.420512">
        <ele>366.400000</ele>
        <time>2009-11-01T10:04:52Z</time>
      </trkpt>
      <trkpt lat="50.668754" lon="6.420654">
        <ele>367.360000</ele>
        <time>2009-11-01T10:05:01Z</time>
      </trkpt>
      <trkpt lat="50.668888" lon="6.420718">
        <ele>367.840000</ele>
        <time>2009-11-01T10:05:11Z</time>
      </trkpt>
      <trkpt lat="50.668948" lon="6.420792">
        <ele>367.360000</ele>
        <time>2009-11-01T10:05:20Z</time>
      </trkpt>
      <trkpt lat="50.669001" lon="6.420891">
        <ele>366.880000</ele>
        <time>2009-11-01T10:05:32Z</time>
      </trkpt>
      <trkpt lat="50.669016" lon="6.420977">
        <ele>366.880000</ele>
        <time>2009-11-01T10:05:38Z</time>
      </trkpt>
      <trkpt lat="50.669009" lon="6.421041">
        <ele>366.880000</ele>
        <time>2009-11-01T10:05:41Z</time>
      </trkpt>
      <trkpt lat="50.669011" lon="6.421138">
        <ele>365.920000</ele>
        <time>2009-11-01T10:05:49Z</time>
      </trkpt>
      <trkpt lat="50.668948" lon="6.421423">
        <ele>365.440000</ele>
        <time>2009-11-01T10:06:01Z</time>
      </trkpt>
      <trkpt lat="50.668953" lon="6.421429">
        <ele>365.440000</ele>
        <time>2009-11-01T10:06:02Z</time>
      </trkpt>
      <trkpt lat="50.668895" lon="6.421570">
        <ele>365.440000</ele>
        <time>2009-11-01T10:06:08Z</time>
      </trkpt>
      <trkpt lat="50.668849" lon="6.421653">
        <ele>364.960000</ele>
        <time>2009-11-01T10:06:12Z</time>
      </trkpt>
      <trkpt lat="50.668836" lon="6.421718">
        <ele>364.480000</ele>
        <time>2009-11-01T10:06:15Z</time>
      </trkpt>
      <trkpt lat="50.668836" lon="6.421824">
        <ele>363.520000</ele>
        <time>2009-11-01T10:06:20Z</time>
      </trkpt>
      <trkpt lat="50.668834" lon="6.421871">
        <ele>363.520000</ele>
        <time>2009-11-01T10:06:23Z</time>
      </trkpt>
      <trkpt lat="50.668797" lon="6.421997">
        <ele>362.550000</ele>
        <time>2009-11-01T10:06:30Z</time>
      </trkpt>
      <trkpt lat="50.668764" lon="6.422137">
        <ele>362.070000</ele>
        <time>2009-11-01T10:06:42Z</time>
      </trkpt>
      <trkpt lat="50.668805" lon="6.422289">
        <ele>363.520000</ele>
        <time>2009-11-01T10:06:58Z</time>
      </trkpt>
      <trkpt lat="50.669128" lon="6.422371">
        <ele>365.440000</ele>
        <time>2009-11-01T10:07:10Z</time>
      </trkpt>
      <trkpt lat="50.669201" lon="6.422376">
        <ele>366.400000</ele>
        <time>2009-11-01T10:07:15Z</time>
      </trkpt>
      <trkpt lat="50.669377" lon="6.422358">
        <ele>367.360000</ele>
        <time>2009-11-01T10:07:26Z</time>
      </trkpt>
      <trkpt lat="50.669528" lon="6.422353">
        <ele>368.800000</ele>
        <time>2009-11-01T10:07:40Z</time>
      </trkpt>
      <trkpt lat="50.669638" lon="6.422317">
        <ele>371.690000</ele>
        <time>2009-11-01T10:07:56Z</time>
      </trkpt>
      <trkpt lat="50.669822" lon="6.422387">
        <ele>375.050000</ele>
        <time>2009-11-01T10:08:13Z</time>
      </trkpt>
      <trkpt lat="50.670132" lon="6.422353">
        <ele>377.450000</ele>
        <time>2009-11-01T10:08:31Z</time>
      </trkpt>
      <trkpt lat="50.670177" lon="6.422357">
        <ele>378.420000</ele>
        <time>2009-11-01T10:08:35Z</time>
      </trkpt>
      <trkpt lat="50.670254" lon="6.422420">
        <ele>380.340000</ele>
        <time>2009-11-01T10:08:42Z</time>
      </trkpt>
      <trkpt lat="50.670329" lon="6.422509">
        <ele>381.300000</ele>
        <time>2009-11-01T10:08:51Z</time>
      </trkpt>
      <trkpt lat="50.670354" lon="6.422606">
        <ele>382.740000</ele>
        <time>2009-11-01T10:08:57Z</time>
      </trkpt>
      <trkpt lat="50.670379" lon="6.422635">
        <ele>383.220000</ele>
        <time>2009-11-01T10:09:00Z</time>
      </trkpt>
      <trkpt lat="50.670449" lon="6.422836">
        <ele>385.150000</ele>
        <time>2009-11-01T10:09:14Z</time>
      </trkpt>
      <trkpt lat="50.670277" lon="6.422886">
        <ele>386.590000</ele>
        <time>2009-11-01T10:09:28Z</time>
      </trkpt>
      <trkpt lat="50.670178" lon="6.422972">
        <ele>386.590000</ele>
        <time>2009-11-01T10:09:38Z</time>
      </trkpt>
      <trkpt lat="50.670154" lon="6.422981">
        <ele>387.070000</ele>
        <time>2009-11-01T10:09:43Z</time>
      </trkpt>
      <trkpt lat="50.669978" lon="6.423121">
        <ele>388.990000</ele>
        <time>2009-11-01T10:10:03Z</time>
      </trkpt>
      <trkpt lat="50.669825" lon="6.423268">
        <ele>387.550000</ele>
        <time>2009-11-01T10:10:18Z</time>
      </trkpt>
      <trkpt lat="50.669798" lon="6.423318">
        <ele>388.030000</ele>
        <time>2009-11-01T10:10:23Z</time>
      </trkpt>
      <trkpt lat="50.669603" lon="6.423640">
        <ele>388.030000</ele>
        <time>2009-11-01T10:10:45Z</time>
      </trkpt>
      <trkpt lat="50.669410" lon="6.423779">
        <ele>388.510000</ele>
        <time>2009-11-01T10:11:00Z</time>
      </trkpt>
      <trkpt lat="50.669328" lon="6.423889">
        <ele>388.990000</ele>
        <time>2009-11-01T10:11:10Z</time>
      </trkpt>
      <trkpt lat="50.669277" lon="6.423949">
        <ele>389.470000</ele>
        <time>2009-11-01T10:11:14Z</time>
      </trkpt>
      <trkpt lat="50.669103" lon="6.424130">
        <ele>390.430000</ele>
        <time>2009-11-01T10:11:29Z</time>
      </trkpt>
      <trkpt lat="50.668900" lon="6.424204">
        <ele>390.430000</ele>
        <time>2009-11-01T10:11:44Z</time>
      </trkpt>
      <trkpt lat="50.668889" lon="6.424202">
        <ele>390.430000</ele>
        <time>2009-11-01T10:11:45Z</time>
      </trkpt>
      <trkpt lat="50.668759" lon="6.424140">
        <ele>389.950000</ele>
        <time>2009-11-01T10:11:59Z</time>
      </trkpt>
      <trkpt lat="50.668537" lon="6.424012">
        <ele>390.430000</ele>
        <time>2009-11-01T10:12:18Z</time>
      </trkpt>
      <trkpt lat="50.668399" lon="6.423966">
        <ele>390.910000</ele>
        <time>2009-11-01T10:12:32Z</time>
      </trkpt>
      <trkpt lat="50.668169" lon="6.423786">
        <ele>391.390000</ele>
        <time>2009-11-01T10:12:54Z</time>
      </trkpt>
      <trkpt lat="50.668001" lon="6.423644">
        <ele>391.870000</ele>
        <time>2009-11-01T10:13:12Z</time>
      </trkpt>
      <trkpt lat="50.667886" lon="6.423507">
        <ele>392.840000</ele>
        <time>2009-11-01T10:13:28Z</time>
      </trkpt>
      <trkpt lat="50.667735" lon="6.423330">
        <ele>394.280000</ele>
        <time>2009-11-01T10:13:44Z</time>
      </trkpt>
      <trkpt lat="50.667658" lon="6.423217">
        <ele>394.280000</ele>
        <time>2009-11-01T10:13:53Z</time>
      </trkpt>
      <trkpt lat="50.667627" lon="6.423136">
        <ele>394.280000</ele>
        <time>2009-11-01T10:13:59Z</time>
      </trkpt>
      <trkpt lat="50.667560" lon="6.422926">
        <ele>394.760000</ele>
        <time>2009-11-01T10:14:12Z</time>
      </trkpt>
      <trkpt lat="50.667472" lon="6.422696">
        <ele>394.760000</ele>
        <time>2009-11-01T10:14:24Z</time>
      </trkpt>
      <trkpt lat="50.667445" lon="6.422419">
        <ele>394.760000</ele>
        <time>2009-11-01T10:14:36Z</time>
      </trkpt>
      <trkpt lat="50.667427" lon="6.422330">
        <ele>395.720000</ele>
        <time>2009-11-01T10:14:40Z</time>
      </trkpt>
      <trkpt lat="50.667417" lon="6.422122">
        <ele>396.200000</ele>
        <time>2009-11-01T10:14:54Z</time>
      </trkpt>
      <trkpt lat="50.667410" lon="6.422045">
        <ele>396.200000</ele>
        <time>2009-11-01T10:14:58Z</time>
      </trkpt>
      <trkpt lat="50.667381" lon="6.421982">
        <ele>396.200000</ele>
        <time>2009-11-01T10:15:03Z</time>
      </trkpt>
      <trkpt lat="50.667364" lon="6.421792">
        <ele>397.160000</ele>
        <time>2009-11-01T10:15:11Z</time>
      </trkpt>
      <trkpt lat="50.667347" lon="6.421622">
        <ele>397.640000</ele>
        <time>2009-11-01T10:15:18Z</time>
      </trkpt>
      <trkpt lat="50.667323" lon="6.421394">
        <ele>399.570000</ele>
        <time>2009-11-01T10:15:30Z</time>
      </trkpt>
      <trkpt lat="50.667290" lon="6.421222">
        <ele>399.080000</ele>
        <time>2009-11-01T10:15:39Z</time>
      </trkpt>
      <trkpt lat="50.667247" lon="6.420964">
        <ele>399.570000</ele>
        <time>2009-11-01T10:15:52Z</time>
      </trkpt>
      <trkpt lat="50.667236" lon="6.420906">
        <ele>400.530000</ele>
        <time>2009-11-01T10:15:55Z</time>
      </trkpt>
      <trkpt lat="50.667218" lon="6.420834">
        <ele>400.050000</ele>
        <time>2009-11-01T10:15:59Z</time>
      </trkpt>
      <trkpt lat="50.667229" lon="6.420746">
        <ele>400.530000</ele>
        <time>2009-11-01T10:16:04Z</time>
      </trkpt>
      <trkpt lat="50.667221" lon="6.420648">
        <ele>400.530000</ele>
        <time>2009-11-01T10:16:09Z</time>
      </trkpt>
      <trkpt lat="50.667199" lon="6.420450">
        <ele>401.010000</ele>
        <time>2009-11-01T10:16:18Z</time>
      </trkpt>
      <trkpt lat="50.667189" lon="6.420385">
        <ele>400.530000</ele>
        <time>2009-11-01T10:16:22Z</time>
      </trkpt>
      <trkpt lat="50.667191" lon="6.420175">
        <ele>401.010000</ele>
        <time>2009-11-01T10:16:33Z</time>
      </trkpt>
      <trkpt lat="50.667197" lon="6.420088">
        <ele>401.010000</ele>
        <time>2009-11-01T10:16:37Z</time>
      </trkpt>
      <trkpt lat="50.667196" lon="6.419981">
        <ele>401.010000</ele>
        <time>2009-11-01T10:16:42Z</time>
      </trkpt>
      <trkpt lat="50.667128" lon="6.419758">
        <ele>401.010000</ele>
        <time>2009-11-01T10:16:54Z</time>
      </trkpt>
      <trkpt lat="50.667117" lon="6.419670">
        <ele>401.010000</ele>
        <time>2009-11-01T10:16:59Z</time>
      </trkpt>
      <trkpt lat="50.667163" lon="6.419587">
        <ele>400.530000</ele>
        <time>2009-11-01T10:17:04Z</time>
      </trkpt>
      <trkpt lat="50.667149" lon="6.419499">
        <ele>400.530000</ele>
        <time>2009-11-01T10:17:10Z</time>
      </trkpt>
      <trkpt lat="50.667217" lon="6.419205">
        <ele>399.080000</ele>
        <time>2009-11-01T10:17:23Z</time>
      </trkpt>
      <trkpt lat="50.667312" lon="6.418950">
        <ele>397.640000</ele>
        <time>2009-11-01T10:17:35Z</time>
      </trkpt>
      <trkpt lat="50.667325" lon="6.418870">
        <ele>397.640000</ele>
        <time>2009-11-01T10:17:42Z</time>
      </trkpt>
      <trkpt lat="50.667342" lon="6.418748">
        <ele>397.640000</ele>
        <time>2009-11-01T10:17:48Z</time>
      </trkpt>
      <trkpt lat="50.667350" lon="6.418670">
        <ele>397.160000</ele>
        <time>2009-11-01T10:17:51Z</time>
      </trkpt>
      <trkpt lat="50.667361" lon="6.418463">
        <ele>397.160000</ele>
        <time>2009-11-01T10:18:00Z</time>
      </trkpt>
      <trkpt lat="50.667358" lon="6.418366">
        <ele>397.160000</ele>
        <time>2009-11-01T10:18:04Z</time>
      </trkpt>
      <trkpt lat="50.667354" lon="6.418118">
        <ele>397.160000</ele>
        <time>2009-11-01T10:18:16Z</time>
      </trkpt>
      <trkpt lat="50.667398" lon="6.418034">
        <ele>397.640000</ele>
        <time>2009-11-01T10:18:24Z</time>
      </trkpt>
      <trkpt lat="50.667591" lon="6.417811">
        <ele>398.120000</ele>
        <time>2009-11-01T10:18:46Z</time>
      </trkpt>
      <trkpt lat="50.667630" lon="6.417671">
        <ele>398.120000</ele>
        <time>2009-11-01T10:19:01Z</time>
      </trkpt>
      <trkpt lat="50.667645" lon="6.417655">
        <ele>398.120000</ele>
        <time>2009-11-01T10:19:02Z</time>
      </trkpt>
      <trkpt lat="50.667785" lon="6.417579">
        <ele>398.600000</ele>
        <time>2009-11-01T10:19:15Z</time>
      </trkpt>
      <trkpt lat="50.667980" lon="6.417509">
        <ele>399.080000</ele>
        <time>2009-11-01T10:19:30Z</time>
      </trkpt>
      <trkpt lat="50.668142" lon="6.417400">
        <ele>399.570000</ele>
        <time>2009-11-01T10:19:45Z</time>
      </trkpt>
      <trkpt lat="50.668272" lon="6.417290">
        <ele>398.600000</ele>
        <time>2009-11-01T10:19:57Z</time>
      </trkpt>
      <trkpt lat="50.668298" lon="6.417301">
        <ele>398.600000</ele>
        <time>2009-11-01T10:20:21Z</time>
      </trkpt>
      <trkpt lat="50.668436" lon="6.417212">
        <ele>398.600000</ele>
        <time>2009-11-01T10:20:41Z</time>
      </trkpt>
      <trkpt lat="50.668612" lon="6.417106">
        <ele>398.600000</ele>
        <time>2009-11-01T10:20:57Z</time>
      </trkpt>
      <trkpt lat="50.668629" lon="6.417079">
        <ele>398.600000</ele>
        <time>2009-11-01T10:20:59Z</time>
      </trkpt>
      <trkpt lat="50.668589" lon="6.416925">
        <ele>401.490000</ele>
        <time>2009-11-01T10:21:10Z</time>
      </trkpt>
      <trkpt lat="50.668573" lon="6.416908">
        <ele>402.450000</ele>
        <time>2009-11-01T10:21:12Z</time>
      </trkpt>
      <trkpt lat="50.668462" lon="6.416799">
        <ele>403.890000</ele>
        <time>2009-11-01T10:21:24Z</time>
      </trkpt>
      <trkpt lat="50.668397" lon="6.416705">
        <ele>405.810000</ele>
        <time>2009-11-01T10:21:31Z</time>
      </trkpt>
      <trkpt lat="50.668342" lon="6.416638">
        <ele>406.770000</ele>
        <time>2009-11-01T10:21:36Z</time>
      </trkpt>
      <trkpt lat="50.668177" lon="6.416470">
        <ele>409.660000</ele>
        <time>2009-11-01T10:21:54Z</time>
      </trkpt>
      <trkpt lat="50.668058" lon="6.416300">
        <ele>412.540000</ele>
        <time>2009-11-01T10:22:09Z</time>
      </trkpt>
      <trkpt lat="50.667957" lon="6.416179">
        <ele>413.020000</ele>
        <time>2009-11-01T10:22:21Z</time>
      </trkpt>
      <trkpt lat="50.667839" lon="6.416017">
        <ele>415.430000</ele>
        <time>2009-11-01T10:22:36Z</time>
      </trkpt>
      <trkpt lat="50.667746" lon="6.415869">
        <ele>417.830000</ele>
        <time>2009-11-01T10:22:52Z</time>
      </trkpt>
      <trkpt lat="50.667595" lon="6.415710">
        <ele>420.230000</ele>
        <time>2009-11-01T10:23:09Z</time>
      </trkpt>
      <trkpt lat="50.667472" lon="6.415545">
        <ele>421.190000</ele>
        <time>2009-11-01T10:23:23Z</time>
      </trkpt>
      <trkpt lat="50.667342" lon="6.415376">
        <ele>422.640000</ele>
        <time>2009-11-01T10:23:39Z</time>
      </trkpt>
      <trkpt lat="50.667218" lon="6.415222">
        <ele>424.080000</ele>
        <time>2009-11-01T10:23:52Z</time>
      </trkpt>
      <trkpt lat="50.667102" lon="6.415084">
        <ele>425.520000</ele>
        <time>2009-11-01T10:24:07Z</time>
      </trkpt>
      <trkpt lat="50.667093" lon="6.415079">
        <ele>426.000000</ele>
        <time>2009-11-01T10:24:08Z</time>
      </trkpt>
      <trkpt lat="50.666945" lon="6.414926">
        <ele>427.440000</ele>
        <time>2009-11-01T10:24:25Z</time>
      </trkpt>
      <trkpt lat="50.666874" lon="6.414824">
        <ele>429.370000</ele>
        <time>2009-11-01T10:24:35Z</time>
      </trkpt>
      <trkpt lat="50.666850" lon="6.414590">
        <ele>429.850000</ele>
        <time>2009-11-01T10:24:48Z</time>
      </trkpt>
      <trkpt lat="50.666851" lon="6.414469">
        <ele>429.370000</ele>
        <time>2009-11-01T10:24:54Z</time>
      </trkpt>
      <trkpt lat="50.666880" lon="6.414201">
        <ele>428.400000</ele>
        <time>2009-11-01T10:25:07Z</time>
      </trkpt>
      <trkpt lat="50.666862" lon="6.413944">
        <ele>428.400000</ele>
        <time>2009-11-01T10:25:18Z</time>
      </trkpt>
      <trkpt lat="50.666853" lon="6.413682">
        <ele>427.440000</ele>
        <time>2009-11-01T10:25:31Z</time>
      </trkpt>
      <trkpt lat="50.666850" lon="6.413316">
        <ele>427.440000</ele>
        <time>2009-11-01T10:25:48Z</time>
      </trkpt>
      <trkpt lat="50.666832" lon="6.412973">
        <ele>428.400000</ele>
        <time>2009-11-01T10:26:04Z</time>
      </trkpt>
      <trkpt lat="50.666829" lon="6.412774">
        <ele>428.890000</ele>
        <time>2009-11-01T10:26:13Z</time>
      </trkpt>
      <trkpt lat="50.666834" lon="6.412705">
        <ele>429.850000</ele>
        <time>2009-11-01T10:26:17Z</time>
      </trkpt>
      <trkpt lat="50.666812" lon="6.412538">
        <ele>430.330000</ele>
        <time>2009-11-01T10:26:27Z</time>
      </trkpt>
      <trkpt lat="50.666787" lon="6.412432">
        <ele>430.810000</ele>
        <time>2009-11-01T10:26:33Z</time>
      </trkpt>
      <trkpt lat="50.666754" lon="6.412356">
        <ele>431.290000</ele>
        <time>2009-11-01T10:26:37Z</time>
      </trkpt>
      <trkpt lat="50.666758" lon="6.412074">
        <ele>431.770000</ele>
        <time>2009-11-01T10:26:53Z</time>
      </trkpt>
      <trkpt lat="50.666740" lon="6.411937">
        <ele>432.250000</ele>
        <time>2009-11-01T10:27:00Z</time>
      </trkpt>
      <trkpt lat="50.666715" lon="6.411862">
        <ele>433.690000</ele>
        <time>2009-11-01T10:27:03Z</time>
      </trkpt>
      <trkpt lat="50.666688" lon="6.411636">
        <ele>433.210000</ele>
        <time>2009-11-01T10:27:16Z</time>
      </trkpt>
      <trkpt lat="50.666639" lon="6.411317">
        <ele>433.690000</ele>
        <time>2009-11-01T10:27:33Z</time>
      </trkpt>
      <trkpt lat="50.666592" lon="6.410996">
        <ele>434.650000</ele>
        <time>2009-11-01T10:27:48Z</time>
      </trkpt>
      <trkpt lat="50.666529" lon="6.410690">
        <ele>435.610000</ele>
        <time>2009-11-01T10:28:03Z</time>
      </trkpt>
      <trkpt lat="50.666429" lon="6.410472">
        <ele>437.060000</ele>
        <time>2009-11-01T10:28:17Z</time>
      </trkpt>
      <trkpt lat="50.666302" lon="6.410401">
        <ele>438.980000</ele>
        <time>2009-11-01T10:28:31Z</time>
      </trkpt>
      <trkpt lat="50.666167" lon="6.410386">
        <ele>440.900000</ele>
        <time>2009-11-01T10:28:45Z</time>
      </trkpt>
      <trkpt lat="50.665979" lon="6.410349">
        <ele>442.820000</ele>
        <time>2009-11-01T10:28:59Z</time>
      </trkpt>
      <trkpt lat="50.665884" lon="6.410343">
        <ele>445.710000</ele>
        <time>2009-11-01T10:29:08Z</time>
      </trkpt>
      <trkpt lat="50.665755" lon="6.410314">
        <ele>444.750000</ele>
        <time>2009-11-01T10:29:25Z</time>
      </trkpt>
      <trkpt lat="50.665708" lon="6.410295">
        <ele>445.710000</ele>
        <time>2009-11-01T10:29:43Z</time>
      </trkpt>
      <trkpt lat="50.665666" lon="6.410264">
        <ele>447.150000</ele>
        <time>2009-11-01T10:29:46Z</time>
      </trkpt>
      <trkpt lat="50.665483" lon="6.410241">
        <ele>446.670000</ele>
        <time>2009-11-01T10:30:00Z</time>
      </trkpt>
      <trkpt lat="50.665434" lon="6.410167">
        <ele>447.150000</ele>
        <time>2009-11-01T10:30:08Z</time>
      </trkpt>
      <trkpt lat="50.665451" lon="6.410085">
        <ele>447.630000</ele>
        <time>2009-11-01T10:30:12Z</time>
      </trkpt>
      <trkpt lat="50.665474" lon="6.410042">
        <ele>447.150000</ele>
        <time>2009-11-01T10:30:15Z</time>
      </trkpt>
      <trkpt lat="50.665524" lon="6.409781">
        <ele>448.110000</ele>
        <time>2009-11-01T10:30:28Z</time>
      </trkpt>
      <trkpt lat="50.665533" lon="6.409615">
        <ele>445.230000</ele>
        <time>2009-11-01T10:30:38Z</time>
      </trkpt>
      <trkpt lat="50.665528" lon="6.409429">
        <ele>442.820000</ele>
        <time>2009-11-01T10:30:50Z</time>
      </trkpt>
      <trkpt lat="50.665542" lon="6.409212">
        <ele>440.420000</ele>
        <time>2009-11-01T10:31:01Z</time>
      </trkpt>
      <trkpt lat="50.665377" lon="6.409106">
        <ele>441.860000</ele>
        <time>2009-11-01T10:31:14Z</time>
      </trkpt>
      <trkpt lat="50.665216" lon="6.409043">
        <ele>442.820000</ele>
        <time>2009-11-01T10:31:26Z</time>
      </trkpt>
      <trkpt lat="50.665144" lon="6.409023">
        <ele>443.790000</ele>
        <time>2009-11-01T10:31:33Z</time>
      </trkpt>
      <trkpt lat="50.665018" lon="6.408980">
        <ele>445.230000</ele>
        <time>2009-11-01T10:31:44Z</time>
      </trkpt>
      <trkpt lat="50.664807" lon="6.408934">
        <ele>446.670000</ele>
        <time>2009-11-01T10:32:01Z</time>
      </trkpt>
      <trkpt lat="50.664698" lon="6.408930">
        <ele>448.110000</ele>
        <time>2009-11-01T10:32:11Z</time>
      </trkpt>
      <trkpt lat="50.664563" lon="6.408899">
        <ele>449.070000</ele>
        <time>2009-11-01T10:32:23Z</time>
      </trkpt>
      <trkpt lat="50.664476" lon="6.408914">
        <ele>449.550000</ele>
        <time>2009-11-01T10:32:37Z</time>
      </trkpt>
      <trkpt lat="50.664439" lon="6.408869">
        <ele>450.030000</ele>
        <time>2009-11-01T10:32:53Z</time>
      </trkpt>
      <trkpt lat="50.664302" lon="6.408875">
        <ele>452.440000</ele>
        <time>2009-11-01T10:33:11Z</time>
      </trkpt>
      <trkpt lat="50.664182" lon="6.408862">
        <ele>452.920000</ele>
        <time>2009-11-01T10:33:26Z</time>
      </trkpt>
      <trkpt lat="50.664177" lon="6.408846">
        <ele>452.920000</ele>
        <time>2009-11-01T10:33:27Z</time>
      </trkpt>
      <trkpt lat="50.664200" lon="6.408768">
        <ele>452.440000</ele>
        <time>2009-11-01T10:33:42Z</time>
      </trkpt>
      <trkpt lat="50.664201" lon="6.408851">
        <ele>452.920000</ele>
        <time>2009-11-01T10:34:02Z</time>
      </trkpt>
      <trkpt lat="50.664185" lon="6.408933">
        <ele>453.400000</ele>
        <time>2009-11-01T10:34:06Z</time>
      </trkpt>
      <trkpt lat="50.664221" lon="6.408910">
        <ele>453.400000</ele>
        <time>2009-11-01T10:34:21Z</time>
      </trkpt>
      <trkpt lat="50.664228" lon="6.408817">
        <ele>453.400000</ele>
        <time>2009-11-01T10:34:39Z</time>
      </trkpt>
      <trkpt lat="50.664228" lon="6.408817">
        <ele>453.400000</ele>
        <time>2009-11-01T10:34:40Z</time>
      </trkpt>
    </trkseg>
  </trk>

</gpx>
